Report METAR

 

LIML - Milano/Linate, Italy
Distance from station: NO 27km
Dati ricevuti: 29/09/2020 09:20
Molto nuvoloso
Molto nuvoloso
 Vento da NE
Vento: NE 6 km/h
Temperatura: 14°C
P.to Rugiada: 9°C
Umidità: 72%
Barometro: 1016 hPa
Nuvole: Molto nuvoloso
Visibility: 10 km
Cloud details: Molto nuvoloso 3048 m
2020/09/29 07:20 LIML 290720Z 04003KT 010V070 9999 BKN100 14/09 Q1016 NOSIG
LIME - Bergamo/Orio Ser, Italy
Distance from station: NNE 43km
Dati ricevuti: 29/09/2020 09:20
Few Clouds
Few Clouds
 Vento da N
Vento: N 6 km/h
Temperatura: 12°C
P.to Rugiada: 8°C
Umidità: 77%
Barometro: 1017 hPa
Nuvole: Few Clouds
Visibility: 10 km
Cloud details: Few Clouds 3658 m
2020/09/29 07:20 LIME 290720Z 01003KT 320V030 9999 FEW120 12/08 Q1017 NOSIG
 
LIMS - Piacenza, it-Afb, Italy
Distance from station: SSE 45km
Dati ricevuti: 29/09/2020 08:55
Sereno
Sereno
 Vento da O
Vento: O 9 km/h
Temperatura: 13°C
P.to Rugiada: 10°C
Umidità: 82%
Barometro: 1015 hPa
Summary: Sereno
Visibility: superiore a 10 km
2020/09/29 06:55 LIMS 290655Z 27005KT CAVOK 13/10 Q1015
LIPO - Brescia/Montichi, Italy
Distance from station: ENE 65km
Dati ricevuti: 29/09/2020 09:20
Molto nuvoloso
Molto nuvoloso
 Vento da Variabile
Vento: Variabile 2 km/h
Temperatura: 15°C
P.to Rugiada: 9°C
Umidità: 68%
Barometro: 1017 hPa
Nuvole: Molto nuvoloso
Visibility: 10 km
Cloud details: Parz. nuvoloso 3962 m
Molto nuvoloso 4877 m
2020/09/29 07:20 LIPO 290720Z AUTO VRB01KT 9999 SCT130/// BKN160/// 15/09 Q1017